sensor_id;sensor_type;location;lat;lon;timestamp;pressure;altitude;pressure_sealevel;temperature;humidity
4398;BME280;2213;49.720;7.296;2023-03-03T00:01:56;98452.22;;;1.40;100.00
4398;BME280;2213;49.720;7.296;2023-03-03T00:04:25;98449.66;;;1.40;100.00
4398;BME280;2213;49.720;7.296;2023-03-03T00:06:55;98452.47;;;1.37;100.00
4398;BME280;2213;49.720;7.296;2023-03-03T00:09:24;98450.25;;;1.32;100.00
4398;BME280;2213;49.720;7.296;2023-03-03T00:11:58;98447.81;;;1.31;100.00
4398;BME280;2213;49.720;7.296;2023-03-03T00:14:32;98448.88;;;1.28;100.00
4398;BME280;2213;49.720;7.296;2023-03-03T00:17:13;98461.03;;;1.26;100.00
4398;BME280;2213;49.720;7.296;2023-03-03T00:19:44;98449.06;;;1.25;100.00
4398;BME280;2213;49.720;7.296;2023-03-03T00:22:24;98449.06;;;1.25;100.00
4398;BME280;2213;49.720;7.296;2023-03-03T00:24:54;98448.75;;;1.19;100.00
4398;BME280;2213;49.720;7.296;2023-03-03T00:27:29;98449.47;;;1.10;100.00
4398;BME280;2213;49.720;7.296;2023-03-03T00:30:00;98449.81;;;1.16;100.00
4398;BME280;2213;49.720;7.296;2023-03-03T00:32:37;98454.59;;;1.10;100.00
4398;BME280;2213;49.720;7.296;2023-03-03T00:35:25;98448.63;;;1.09;100.00
4398;BME280;2213;49.720;7.296;2023-03-03T00:37:56;98451.78;;;1.01;100.00
4398;BME280;2213;49.720;7.296;2023-03-03T00:40:30;98448.06;;;1.06;100.00
4398;BME280;2213;49.720;7.296;2023-03-03T00:43:13;98449.13;;;1.03;100.00
4398;BME280;2213;49.720;7.296;2023-03-03T00:45:48;98457.53;;;0.94;100.00
4398;BME280;2213;49.720;7.296;2023-03-03T00:48:25;98453.66;;;0.88;100.00
4398;BME280;2213;49.720;7.296;2023-03-03T00:50:57;98455.91;;;0.93;100.00
4398;BME280;2213;49.720;7.296;2023-03-03T00:53:29;98454.59;;;0.98;100.00
4398;BME280;2213;49.720;7.296;2023-03-03T00:55:58;98456.50;;;0.96;100.00
4398;BME280;2213;49.720;7.296;2023-03-03T00:58:28;98456.59;;;0.95;100.00
4398;BME280;2213;49.720;7.296;2023-03-03T01:00:59;98460.91;;;0.94;100.00
4398;BME280;2213;49.720;7.296;2023-03-03T01:03:32;98465.03;;;0.97;100.00
4398;BME280;2213;49.720;7.296;2023-03-03T01:06:03;98467.59;;;0.86;100.00
4398;BME280;2213;49.720;7.296;2023-03-03T01:08:33;98465.47;;;0.91;100.00
4398;BME280;2213;49.720;7.296;2023-03-03T01:11:07;98466.53;;;0.88;100.00
4398;BME280;2213;49.720;7.296;2023-03-03T01:13:40;98461.13;;;0.80;100.00
4398;BME280;2213;49.720;7.296;2023-03-03T01:16:13;98464.78;;;0.78;100.00
4398;BME280;2213;49.720;7.296;2023-03-03T01:18:42;98471.81;;;0.76;100.00
4398;BME280;2213;49.720;7.296;2023-03-03T01:21:12;98471.09;;;0.74;100.00
4398;BME280;2213;49.720;7.296;2023-03-03T01:23:41;98472.25;;;0.70;100.00
4398;BME280;2213;49.720;7.296;2023-03-03T01:26:13;98473.88;;;0.71;100.00
4398;BME280;2213;49.720;7.296;2023-03-03T01:28:42;98474.13;;;0.68;100.00
4398;BME280;2213;49.720;7.296;2023-03-03T01:31:14;98468.03;;;0.58;100.00
4398;BME280;2213;49.720;7.296;2023-03-03T01:33:44;98462.06;;;0.57;100.00
4398;BME280;2213;49.720;7.296;2023-03-03T01:36:13;98459.81;;;0.52;100.00
4398;BME280;2213;49.720;7.296;2023-03-03T01:38:43;98453.16;;;0.50;100.00
4398;BME280;2213;49.720;7.296;2023-03-03T01:41:13;98463.09;;;0.55;100.00
4398;BME280;2213;49.720;7.296;2023-03-03T01:43:45;98459.81;;;0.52;100.00
4398;BME280;2213;49.720;7.296;2023-03-03T01:46:52;98454.53;;;0.43;100.00
4398;BME280;2213;49.720;7.296;2023-03-03T01:49:28;98455.38;;;0.43;100.00
4398;BME280;2213;49.720;7.296;2023-03-03T01:52:03;98459.69;;;0.43;100.00
4398;BME280;2213;49.720;7.296;2023-03-03T01:54:41;98455.38;;;0.43;100.00
4398;BME280;2213;49.720;7.296;2023-03-03T01:57:17;98456.28;;;0.42;100.00
4398;BME280;2213;49.720;7.296;2023-03-03T01:59:50;98454.06;;;0.49;100.00
4398;BME280;2213;49.720;7.296;2023-03-03T02:02:24;98451.28;;;0.41;100.00
4398;BME280;2213;49.720;7.296;2023-03-03T02:04:55;98457.94;;;0.43;100.00
4398;BME280;2213;49.720;7.296;2023-03-03T02:07:27;98453.31;;;0.25;100.00
4398;BME280;2213;49.720;7.296;2023-03-03T02:10:05;98447.13;;;0.16;100.00
4398;BME280;2213;49.720;7.296;2023-03-03T02:12:41;98453.69;;;0.20;100.00
4398;BME280;2213;49.720;7.296;2023-03-03T02:15:22;98453.44;;;0.23;100.00
4398;BME280;2213;49.720;7.296;2023-03-03T02:17:55;98444.09;;;0.22;100.00
4398;BME280;2213;49.720;7.296;2023-03-03T02:20:49;98448.53;;;0.20;100.00
4398;BME280;2213;49.720;7.296;2023-03-03T02:23:27;98441.28;;;0.25;100.00
4398;BME280;2213;49.720;7.296;2023-03-03T02:26:13;98436.38;;;0.22;100.00
4398;BME280;2213;49.720;7.296;2023-03-03T02:28:43;98439.66;;;0.24;100.00
4398;BME280;2213;49.720;7.296;2023-03-03T02:31:15;98439.19;;;0.19;100.00
4398;BME280;2213;49.720;7.296;2023-03-03T02:33:48;98446.44;;;0.25;100.00
4398;BME280;2213;49.720;7.296;2023-03-03T02:36:21;98444.00;;;0.24;100.00
4398;BME280;2213;49.720;7.296;2023-03-03T02:38:58;98434.53;;;0.24;100.00
4398;BME280;2213;49.720;7.296;2023-03-03T02:41:38;98442.34;;;0.23;100.00
4398;BME280;2213;49.720;7.296;2023-03-03T02:44:11;98445.59;;;0.25;100.00
4398;BME280;2213;49.720;7.296;2023-03-03T02:46:44;98438.94;;;0.22;100.00
4398;BME280;2213;49.720;7.296;2023-03-03T02:49:18;98437.75;;;0.15;100.00
4398;BME280;2213;49.720;7.296;2023-03-03T02:51:48;98436.56;;;0.08;100.00
4398;BME280;2213;49.720;7.296;2023-03-03T02:54:20;98440.06;;;0.07;100.00
4398;BME280;2213;49.720;7.296;2023-03-03T02:56:52;98444.28;;;0.08;100.00
4398;BME280;2213;49.720;7.296;2023-03-03T02:59:21;98442.63;;;0.07;100.00
4398;BME280;2213;49.720;7.296;2023-03-03T03:01:51;98441.84;;;0.07;100.00
4398;BME280;2213;49.720;7.296;2023-03-03T03:04:23;98440.03;;;-0.04;100.00
4398;BME280;2213;49.720;7.296;2023-03-03T03:06:54;98446.56;;;-0.11;100.00
4398;BME280;2213;49.720;7.296;2023-03-03T03:09:24;98442.94;;;-0.09;100.00
4398;BME280;2213;49.720;7.296;2023-03-03T03:11:56;98441.06;;;-0.07;100.00
4398;BME280;2213;49.720;7.296;2023-03-03T03:14:27;98440.25;;;-0.07;100.00
4398;BME280;2213;49.720;7.296;2023-03-03T03:16:56;98445.72;;;-0.12;100.00
4398;BME280;2213;49.720;7.296;2023-03-03T03:19:27;98446.19;;;-0.07;100.00
4398;BME280;2213;49.720;7.296;2023-03-03T03:21:56;98452.63;;;-0.12;100.00
4398;BME280;2213;49.720;7.296;2023-03-03T03:24:27;98457.53;;;-0.09;100.00
4398;BME280;2213;49.720;7.296;2023-03-03T03:26:58;98453.66;;;-0.15;100.00
4398;BME280;2213;49.720;7.296;2023-03-03T03:29:28;98455.84;;;-0.21;100.00
4398;BME280;2213;49.720;7.296;2023-03-03T03:31:57;98459.22;;;-0.21;100.00
4398;BME280;2213;49.720;7.296;2023-03-03T03:34:26;98460.47;;;-0.26;100.00
4398;BME280;2213;49.720;7.296;2023-03-03T03:36:56;98461.19;;;-0.24;100.00
4398;BME280;2213;49.720;7.296;2023-03-03T03:39:26;98462.97;;;-0.25;100.00
4398;BME280;2213;49.720;7.296;2023-03-03T03:41:58;98460.47;;;-0.26;100.00
4398;BME280;2213;49.720;7.296;2023-03-03T03:44:27;98458.44;;;-0.21;100.00
4398;BME280;2213;49.720;7.296;2023-03-03T03:46:56;98451.63;;;-0.22;100.00
4398;BME280;2213;49.720;7.296;2023-03-03T03:49:26;98455.66;;;-0.31;100.00
4398;BME280;2213;49.720;7.296;2023-03-03T03:51:56;98452.69;;;-0.25;100.00
4398;BME280;2213;49.720;7.296;2023-03-03T03:54:26;98451.03;;;-0.26;100.00
4398;BME280;2213;49.720;7.296;2023-03-03T03:56:54;98462.34;;;-0.28;100.00
4398;BME280;2213;49.720;7.296;2023-03-03T03:59:26;98464.41;;;-0.33;100.00
4398;BME280;2213;49.720;7.296;2023-03-03T04:01:55;98463.34;;;-0.42;100.00
4398;BME280;2213;49.720;7.296;2023-03-03T04:04:24;98458.81;;;-0.38;100.00
4398;BME280;2213;49.720;7.296;2023-03-03T04:06:54;98456.31;;;-0.40;100.00
4398;BME280;2213;49.720;7.296;2023-03-03T04:09:23;98454.69;;;-0.41;100.00
4398;BME280;2213;49.720;7.296;2023-03-03T04:11:53;98457.16;;;-0.39;100.00
4398;BME280;2213;49.720;7.296;2023-03-03T04:14:25;98456.09;;;-0.37;100.00
4398;BME280;2213;49.720;7.296;2023-03-03T04:16:54;98462.38;;;-0.41;100.00
4398;BME280;2213;49.720;7.296;2023-03-03T04:19:23;98454.38;;;-0.36;100.00
4398;BME280;2213;49.720;7.296;2023-03-03T04:21:53;98454.38;;;-0.36;100.00
4398;BME280;2213;49.720;7.296;2023-03-03T04:24:21;98459.19;;;-0.32;100.00
4398;BME280;2213;49.720;7.296;2023-03-03T04:26:52;98459.50;;;-0.36;100.00
4398;BME280;2213;49.720;7.296;2023-03-03T04:29:22;98462.56;;;-0.31;100.00
4398;BME280;2213;49.720;7.296;2023-03-03T04:31:52;98462.56;;;-0.31;100.00
4398;BME280;2213;49.720;7.296;2023-03-03T04:34:22;98456.50;;;-0.30;100.00
4398;BME280;2213;49.720;7.296;2023-03-03T04:36:51;98458.84;;;-0.27;100.00
4398;BME280;2213;49.720;7.296;2023-03-03T04:39:20;98458.13;;;-0.29;100.00
4398;BME280;2213;49.720;7.296;2023-03-03T04:41:50;98467.50;;;-0.28;100.00
4398;BME280;2213;49.720;7.296;2023-03-03T04:44:19;98463.97;;;-0.27;100.00
4398;BME280;2213;49.720;7.296;2023-03-03T04:46:49;98459.88;;;-0.30;100.00
4398;BME280;2213;49.720;7.296;2023-03-03T04:49:20;98460.94;;;-0.32;100.00
4398;BME280;2213;49.720;7.296;2023-03-03T04:51:48;98467.91;;;-0.34;100.00
4398;BME280;2213;49.720;7.296;2023-03-03T04:54:18;98458.59;;;-0.35;100.00
4398;BME280;2213;49.720;7.296;2023-03-03T04:56:47;98463.50;;;-0.32;100.00
4398;BME280;2213;49.720;7.296;2023-03-03T04:59:16;98465.56;;;-0.37;100.00
4398;BME280;2213;49.720;7.296;2023-03-03T05:01:45;98468.03;;;-0.36;100.00
4398;BME280;2213;49.720;7.296;2023-03-03T05:04:16;98472.25;;;-0.35;100.00
4398;BME280;2213;49.720;7.296;2023-03-03T05:06:47;98472.34;;;-0.36;100.00
4398;BME280;2213;49.720;7.296;2023-03-03T05:09:17;98477.47;;;-0.36;100.00
4398;BME280;2213;49.720;7.296;2023-03-03T05:11:46;98479.97;;;-0.35;100.00
4398;BME280;2213;49.720;7.296;2023-03-03T05:14:16;98484.28;;;-0.35;100.00
4398;BME280;2213;49.720;7.296;2023-03-03T05:16:46;98481.91;;;-0.38;100.00
4398;BME280;2213;49.720;7.296;2023-03-03T05:19:15;98485.63;;;-0.42;100.00
4398;BME280;2213;49.720;7.296;2023-03-03T05:21:47;98489.94;;;-0.43;100.00
4398;BME280;2213;49.720;7.296;2023-03-03T05:24:17;98484.19;;;-0.46;100.00
4398;BME280;2213;49.720;7.296;2023-03-03T05:26:47;98486.63;;;-0.45;100.00
4398;BME280;2213;49.720;7.296;2023-03-03T05:29:17;98488.41;;;-0.45;100.00
4398;BME280;2213;49.720;7.296;2023-03-03T05:31:47;98482.31;;;-0.44;100.00
4398;BME280;2213;49.720;7.296;2023-03-03T05:34:17;98486.84;;;-0.48;100.00
4398;BME280;2213;49.720;7.296;2023-03-03T05:36:49;98491.38;;;-0.52;100.00
4398;BME280;2213;49.720;7.296;2023-03-03T05:39:20;98493.03;;;-0.51;100.00
4398;BME280;2213;49.720;7.296;2023-03-03T05:41:50;98492.13;;;-0.49;100.00
4398;BME280;2213;49.720;7.296;2023-03-03T05:44:20;98492.56;;;-0.56;100.00
4398;BME280;2213;49.720;7.296;2023-03-03T05:46:49;98504.19;;;-0.63;100.00
4398;BME280;2213;49.720;7.296;2023-03-03T05:49:18;98502.94;;;-0.70;100.00
4398;BME280;2213;49.720;7.296;2023-03-03T05:51:49;98508.47;;;-0.76;100.00
4398;BME280;2213;49.720;7.296;2023-03-03T05:54:20;98506.13;;;-0.79;100.00
4398;BME280;2213;49.720;7.296;2023-03-03T05:56:50;98501.63;;;-0.88;100.00
4398;BME280;2213;49.720;7.296;2023-03-03T05:59:21;98512.94;;;-0.90;100.00
4398;BME280;2213;49.720;7.296;2023-03-03T06:01:50;98510.47;;;-0.92;100.00
4398;BME280;2213;49.720;7.296;2023-03-03T06:04:20;98512.00;;;-0.89;100.00
4398;BME280;2213;49.720;7.296;2023-03-03T06:06:52;98502.34;;;-0.86;100.00
4398;BME280;2213;49.720;7.296;2023-03-03T06:09:22;98502.56;;;-0.89;100.00
4398;BME280;2213;49.720;7.296;2023-03-03T06:11:52;98517.97;;;-0.89;100.00
4398;BME280;2213;49.720;7.296;2023-03-03T06:14:22;98514.78;;;-0.92;100.00
4398;BME280;2213;49.720;7.296;2023-03-03T06:16:53;98513.75;;;-0.90;100.00
4398;BME280;2213;49.720;7.296;2023-03-03T06:19:25;98508.00;;;-0.93;100.00
4398;BME280;2213;49.720;7.296;2023-03-03T06:21:56;98508.81;;;-0.93;100.00
4398;BME280;2213;49.720;7.296;2023-03-03T06:24:27;98512.94;;;-0.90;100.00
4398;BME280;2213;49.720;7.296;2023-03-03T06:26:59;98504.50;;;-0.92;100.00
4398;BME280;2213;49.720;7.296;2023-03-03T06:29:29;98510.88;;;-0.98;100.00
4398;BME280;2213;49.720;7.296;2023-03-03T06:31:59;98516.13;;;-0.99;100.00
4398;BME280;2213;49.720;7.296;2023-03-03T06:34:29;98516.03;;;-0.98;100.00
4398;BME280;2213;49.720;7.296;2023-03-03T06:37:01;98521.16;;;-0.98;100.00
4398;BME280;2213;49.720;7.296;2023-03-03T06:39:31;98522.06;;;-0.99;100.00
4398;BME280;2213;49.720;7.296;2023-03-03T06:42:01;98518.59;;;-0.98;100.00
4398;BME280;2213;49.720;7.296;2023-03-03T06:44:31;98522.06;;;-0.99;100.00
4398;BME280;2213;49.720;7.296;2023-03-03T06:47:00;98531.63;;;-1.01;100.00
4398;BME280;2213;49.720;7.296;2023-03-03T06:49:29;98541.88;;;-1.01;100.00
4398;BME280;2213;49.720;7.296;2023-03-03T06:52:04;98540.56;;;-0.94;100.00
4398;BME280;2213;49.720;7.296;2023-03-03T06:54:38;98551.53;;;-0.92;100.00
4398;BME280;2213;49.720;7.296;2023-03-03T06:57:25;98550.41;;;-0.88;100.00
4398;BME280;2213;49.720;7.296;2023-03-03T06:59:57;98553.06;;;-0.89;100.00
4398;BME280;2213;49.720;7.296;2023-03-03T07:02:29;98555.53;;;-0.88;100.00
4398;BME280;2213;49.720;7.296;2023-03-03T07:05:00;98554.50;;;-0.85;100.00
4398;BME280;2213;49.720;7.296;2023-03-03T07:07:31;98554.19;;;-0.81;100.00
4398;BME280;2213;49.720;7.296;2023-03-03T07:10:15;98571.13;;;-0.78;100.00
4398;BME280;2213;49.720;7.296;2023-03-03T07:12:46;98561.69;;;-0.78;100.00
4398;BME280;2213;49.720;7.296;2023-03-03T07:15:20;98560.34;;;-0.71;100.00
4398;BME280;2213;49.720;7.296;2023-03-03T07:17:55;98561.25;;;-0.72;100.00
4398;BME280;2213;49.720;7.296;2023-03-03T07:20:32;98567.44;;;-0.74;100.00
4398;BME280;2213;49.720;7.296;2023-03-03T07:23:19;98571.31;;;-0.69;100.00
4398;BME280;2213;49.720;7.296;2023-03-03T07:25:50;98572.06;;;-0.67;100.00
4398;BME280;2213;49.720;7.296;2023-03-03T07:28:24;98575.53;;;-0.68;100.00
4398;BME280;2213;49.720;7.296;2023-03-03T07:30:56;98583.25;;;-0.68;100.00
4398;BME280;2213;49.720;7.296;2023-03-03T07:33:28;98574.28;;;-0.62;100.00
4398;BME280;2213;49.720;7.296;2023-03-03T07:36:00;98578.50;;;-0.61;100.00
4398;BME280;2213;49.720;7.296;2023-03-03T07:38:37;98577.38;;;-0.57;100.00
4398;BME280;2213;49.720;7.296;2023-03-03T07:41:17;98579.53;;;-0.51;100.00
4398;BME280;2213;49.720;7.296;2023-03-03T07:43:50;98590.41;;;-0.47;100.00
4398;BME280;2213;49.720;7.296;2023-03-03T07:46:26;98592.56;;;-0.41;100.00
4398;BME280;2213;49.720;7.296;2023-03-03T07:48:58;98593.28;;;-0.39;100.00
4398;BME280;2213;49.720;7.296;2023-03-03T07:51:36;98590.81;;;-0.41;100.00
4398;BME280;2213;49.720;7.296;2023-03-03T07:54:29;98594.94;;;-0.38;100.00
4398;BME280;2213;49.720;7.296;2023-03-03T07:57:11;98587.28;;;-0.27;100.00
4398;BME280;2213;49.720;7.296;2023-03-03T07:59:47;98594.59;;;-0.21;100.00
4398;BME280;2213;49.720;7.296;2023-03-03T08:02:36;98595.09;;;-0.16;100.00
4398;BME280;2213;49.720;7.296;2023-03-03T08:05:34;98596.41;;;-0.11;100.00
4398;BME280;2213;49.720;7.296;2023-03-03T08:08:26;98599.38;;;-0.04;100.00
4398;BME280;2213;49.720;7.296;2023-03-03T08:10:58;98600.59;;;0.03;100.00
4398;BME280;2213;49.720;7.296;2023-03-03T08:13:35;98594.28;;;0.07;100.00
4398;BME280;2213;49.720;7.296;2023-03-03T08:16:34;98596.44;;;0.13;100.00
4398;BME280;2213;49.720;7.296;2023-03-03T08:19:06;98598.47;;;0.21;100.00
4398;BME280;2213;49.720;7.296;2023-03-03T08:21:36;98593.50;;;0.30;100.00
4398;BME280;2213;49.720;7.296;2023-03-03T08:24:06;98605.00;;;0.37;100.00
4398;BME280;2213;49.720;7.296;2023-03-03T08:26:37;98607.41;;;0.52;100.00
4398;BME280;2213;49.720;7.296;2023-03-03T08:29:07;98615.63;;;0.68;100.00
4398;BME280;2213;49.720;7.296;2023-03-03T08:31:39;98614.31;;;0.86;100.00
4398;BME280;2213;49.720;7.296;2023-03-03T08:34:09;98614.81;;;1.02;100.00
4398;BME280;2213;49.720;7.296;2023-03-03T08:36:38;98624.91;;;1.16;100.00
4398;BME280;2213;49.720;7.296;2023-03-03T08:39:08;98622.13;;;1.30;100.00
4398;BME280;2213;49.720;7.296;2023-03-03T08:41:39;98616.28;;;1.39;100.00
4398;BME280;2213;49.720;7.296;2023-03-03T08:44:11;98632.69;;;1.49;100.00
4398;BME280;2213;49.720;7.296;2023-03-03T08:46:40;98632.94;;;1.58;100.00
4398;BME280;2213;49.720;7.296;2023-03-03T08:49:10;98632.34;;;1.65;100.00
4398;BME280;2213;49.720;7.296;2023-03-03T08:51:40;98630.94;;;1.72;100.00
4398;BME280;2213;49.720;7.296;2023-03-03T08:54:11;98634.34;;;1.84;100.00
4398;BME280;2213;49.720;7.296;2023-03-03T08:56:42;98638.91;;;1.91;100.00
4398;BME280;2213;49.720;7.296;2023-03-03T08:59:12;98635.72;;;1.99;100.00
4398;BME280;2213;49.720;7.296;2023-03-03T09:01:42;98634.22;;;2.08;100.00
4398;BME280;2213;49.720;7.296;2023-03-03T09:04:13;98624.22;;;2.14;100.00
4398;BME280;2213;49.720;7.296;2023-03-03T09:06:42;98631.59;;;2.19;100.00
4398;BME280;2213;49.720;7.296;2023-03-03T09:09:13;98625.97;;;2.25;100.00
4398;BME280;2213;49.720;7.296;2023-03-03T09:11:45;98635.91;;;2.29;100.00
4398;BME280;2213;49.720;7.296;2023-03-03T09:14:17;98626.63;;;2.38;100.00
4398;BME280;2213;49.720;7.296;2023-03-03T09:16:52;98645.03;;;2.44;100.00
4398;BME280;2213;49.720;7.296;2023-03-03T09:19:26;98643.59;;;2.51;100.00
4398;BME280;2213;49.720;7.296;2023-03-03T09:22:14;98643.94;;;2.58;100.00
4398;BME280;2213;49.720;7.296;2023-03-03T09:24:49;98644.16;;;2.66;100.00
4398;BME280;2213;49.720;7.296;2023-03-03T09:27:28;98649.66;;;2.73;100.00
4398;BME280;2213;49.720;7.296;2023-03-03T09:30:11;98648.22;;;2.80;100.00
4398;BME280;2213;49.720;7.296;2023-03-03T09:32:55;98655.47;;;2.86;100.00
4398;BME280;2213;49.720;7.296;2023-03-03T09:35:37;98640.41;;;2.91;100.00
4398;BME280;2213;49.720;7.296;2023-03-03T09:38:25;98633.94;;;2.96;100.00
4398;BME280;2213;49.720;7.296;2023-03-03T09:41:21;98635.19;;;3.02;100.00
4398;BME280;2213;49.720;7.296;2023-03-03T09:44:27;98643.28;;;3.09;100.00
4398;BME280;2213;49.720;7.296;2023-03-03T09:47:21;98628.34;;;3.12;100.00
4398;BME280;2213;49.720;7.296;2023-03-03T09:50:08;98632.75;;;3.21;100.00
4398;BME280;2213;49.720;7.296;2023-03-03T09:52:49;98635.78;;;3.26;100.00
4398;BME280;2213;49.720;7.296;2023-03-03T09:55:35;98642.31;;;3.30;100.00
4398;BME280;2213;49.720;7.296;2023-03-03T09:58:30;98635.00;;;3.35;100.00
4398;BME280;2213;49.720;7.296;2023-03-03T10:07:45;98639.16;;;3.47;100.00
4398;BME280;2213;49.720;7.296;2023-03-03T10:10:52;98647.34;;;3.52;100.00
4398;BME280;2213;49.720;7.296;2023-03-03T10:13:47;98639.34;;;3.55;100.00
4398;BME280;2213;49.720;7.296;2023-03-03T10:16:57;98643.16;;;3.61;100.00
4398;BME280;2213;49.720;7.296;2023-03-03T10:19:38;98653.13;;;3.66;100.00
4398;BME280;2213;49.720;7.296;2023-03-03T10:22:19;98653.69;;;3.69;100.00
4398;BME280;2213;49.720;7.296;2023-03-03T10:25:13;98650.72;;;3.74;100.00
4398;BME280;2213;49.720;7.296;2023-03-03T10:28:09;98648.44;;;3.80;100.00
4398;BME280;2213;49.720;7.296;2023-03-03T10:30:58;98662.75;;;3.84;100.00
4398;BME280;2213;49.720;7.296;2023-03-03T10:33:50;98666.59;;;3.90;100.00
4398;BME280;2213;49.720;7.296;2023-03-03T10:36:36;98662.22;;;3.90;100.00
4398;BME280;2213;49.720;7.296;2023-03-03T10:40:00;98666.75;;;3.98;100.00
4398;BME280;2213;49.720;7.296;2023-03-03T10:42:58;98666.88;;;3.96;100.00
4398;BME280;2213;49.720;7.296;2023-03-03T10:46:13;98663.09;;;4.00;100.00
4398;BME280;2213;49.720;7.296;2023-03-03T10:49:19;98667.16;;;4.03;100.00
4398;BME280;2213;49.720;7.296;2023-03-03T10:52:16;98666.78;;;4.07;100.00
4398;BME280;2213;49.720;7.296;2023-03-03T10:58:51;98664.50;;;4.14;100.00
4398;BME280;2213;49.720;7.296;2023-03-03T11:01:39;98672.25;;;4.14;100.00
4398;BME280;2213;49.720;7.296;2023-03-03T11:04:35;98655.53;;;4.18;100.00
4398;BME280;2213;49.720;7.296;2023-03-03T11:07:16;98662.34;;;4.19;100.00
4398;BME280;2213;49.720;7.296;2023-03-03T11:10:08;98672.44;;;4.22;100.00
4398;BME280;2213;49.720;7.296;2023-03-03T11:12:55;98674.63;;;4.27;100.00
4398;BME280;2213;49.720;7.296;2023-03-03T11:15:49;98673.66;;;4.28;100.00
4398;BME280;2213;49.720;7.296;2023-03-03T11:18:34;98675.19;;;4.30;100.00
4398;BME280;2213;49.720;7.296;2023-03-03T11:21:18;98672.34;;;4.33;100.00
4398;BME280;2213;49.720;7.296;2023-03-03T11:24:30;98676.41;;;4.36;100.00
4398;BME280;2213;49.720;7.296;2023-03-03T11:27:32;98669.47;;;4.36;100.00
4398;BME280;2213;49.720;7.296;2023-03-03T11:30:47;98668.38;;;4.39;100.00
4398;BME280;2213;49.720;7.296;2023-03-03T11:33:25;98667.28;;;4.41;100.00
4398;BME280;2213;49.720;7.296;2023-03-03T11:36:16;98669.59;;;4.44;100.00
4398;BME280;2213;49.720;7.296;2023-03-03T11:38:58;98658.88;;;4.49;100.00
4398;BME280;2213;49.720;7.296;2023-03-03T11:41:33;98656.16;;;4.50;100.00
4398;BME280;2213;49.720;7.296;2023-03-03T11:44:16;98655.06;;;4.53;100.00
4398;BME280;2213;49.720;7.296;2023-03-03T11:46:52;98656.44;;;4.57;100.00
4398;BME280;2213;49.720;7.296;2023-03-03T11:49:30;98650.84;;;4.62;100.00
4398;BME280;2213;49.720;7.296;2023-03-03T11:52:21;98646.06;;;4.67;100.00
4398;BME280;2213;49.720;7.296;2023-03-03T11:54:59;98646.75;;;4.69;100.00
4398;BME280;2213;49.720;7.296;2023-03-03T11:57:35;98647.28;;;4.72;100.00
4398;BME280;2213;49.720;7.296;2023-03-03T12:00:28;98645.00;;;4.79;100.00
4398;BME280;2213;49.720;7.296;2023-03-03T12:03:29;98651.41;;;4.84;100.00
4398;BME280;2213;49.720;7.296;2023-03-03T12:06:21;98648.41;;;4.89;100.00
4398;BME280;2213;49.720;7.296;2023-03-03T12:09:29;98648.00;;;4.93;100.00
4398;BME280;2213;49.720;7.296;2023-03-03T12:12:06;98644.19;;;4.97;100.00
4398;BME280;2213;49.720;7.296;2023-03-03T12:15:01;98639.53;;;5.01;100.00
4398;BME280;2213;49.720;7.296;2023-03-03T12:18:22;98634.78;;;5.06;100.00
4398;BME280;2213;49.720;7.296;2023-03-03T12:21:14;98649.88;;;5.11;100.00
4398;BME280;2213;49.720;7.296;2023-03-03T12:24:05;98639.94;;;5.16;100.00
4398;BME280;2213;49.720;7.296;2023-03-03T12:26:51;98642.25;;;5.19;100.00
4398;BME280;2213;49.720;7.296;2023-03-03T12:29:29;98643.75;;;5.21;100.00
4398;BME280;2213;49.720;7.296;2023-03-03T12:32:16;98638.97;;;5.26;100.00
4398;BME280;2213;49.720;7.296;2023-03-03T12:34:56;98638.56;;;5.31;100.00
4398;BME280;2213;49.720;7.296;2023-03-03T12:37:52;98629.69;;;5.33;100.00
4398;BME280;2213;49.720;7.296;2023-03-03T12:40:27;98634.47;;;5.38;100.00
4398;BME280;2213;49.720;7.296;2023-03-03T12:43:16;98620.78;;;5.45;100.00
4398;BME280;2213;49.720;7.296;2023-03-03T12:46:00;98617.88;;;5.48;100.00
4398;BME280;2213;49.720;7.296;2023-03-03T12:48:40;98616.66;;;5.52;100.00
4398;BME280;2213;49.720;7.296;2023-03-03T12:51:25;98613.78;;;5.55;100.00
4398;BME280;2213;49.720;7.296;2023-03-03T12:57:16;98610.34;;;5.65;100.00
4398;BME280;2213;49.720;7.296;2023-03-03T13:00:10;98604.88;;;5.68;100.00
4398;BME280;2213;49.720;7.296;2023-03-03T13:02:58;98603.47;;;5.83;100.00
4398;BME280;2213;49.720;7.296;2023-03-03T13:05:39;98605.78;;;5.86;100.00
4398;BME280;2213;49.720;7.296;2023-03-03T13:08:36;98597.84;;;5.87;100.00
4398;BME280;2213;49.720;7.296;2023-03-03T13:11:35;98605.22;;;5.92;100.00
4398;BME280;2213;49.720;7.296;2023-03-03T13:14:21;98607.47;;;6.04;100.00
4398;BME280;2213;49.720;7.296;2023-03-03T13:17:08;98593.94;;;6.11;100.00
4398;BME280;2213;49.720;7.296;2023-03-03T13:19:49;98588.44;;;6.14;100.00
4398;BME280;2213;49.720;7.296;2023-03-03T13:22:33;98597.72;;;6.16;100.00
4398;BME280;2213;49.720;7.296;2023-03-03T13:25:31;98602.59;;;6.19;100.00
4398;BME280;2213;49.720;7.296;2023-03-03T13:28:11;98592.91;;;6.21;100.00
4398;BME280;2213;49.720;7.296;2023-03-03T13:30:48;98590.03;;;6.24;100.00
4398;BME280;2213;49.720;7.296;2023-03-03T13:33:26;98576.06;;;6.25;100.00
4398;BME280;2213;49.720;7.296;2023-03-03T13:36:02;98583.41;;;6.30;100.00
4398;BME280;2213;49.720;7.296;2023-03-03T13:38:40;98577.78;;;6.34;100.00
4398;BME280;2213;49.720;7.296;2023-03-03T13:41:22;98579.13;;;6.38;100.00
4398;BME280;2213;49.720;7.296;2023-03-03T13:43:59;98574.28;;;6.43;100.00
4398;BME280;2213;49.720;7.296;2023-03-03T13:46:45;98571.25;;;6.48;100.00
4398;BME280;2213;49.720;7.296;2023-03-03T13:49:40;98561.38;;;6.51;100.00
4398;BME280;2213;49.720;7.296;2023-03-03T13:52:20;98555.06;;;6.54;100.00
4398;BME280;2213;49.720;7.296;2023-03-03T13:55:09;98555.59;;;6.57;100.00
4398;BME280;2213;49.720;7.296;2023-03-03T13:57:50;98543.94;;;6.62;100.00
4398;BME280;2213;49.720;7.296;2023-03-03T14:00:35;98553.94;;;6.74;100.00
4398;BME280;2213;49.720;7.296;2023-03-03T14:06:25;98550.59;;;6.82;100.00
4398;BME280;2213;49.720;7.296;2023-03-03T14:09:26;98551.75;;;6.87;100.00
4398;BME280;2213;49.720;7.296;2023-03-03T14:12:11;98556.69;;;6.90;100.00
4398;BME280;2213;49.720;7.296;2023-03-03T14:14:58;98548.09;;;6.98;100.00
4398;BME280;2213;49.720;7.296;2023-03-03T14:17:39;98548.34;;;7.04;100.00
4398;BME280;2213;49.720;7.296;2023-03-03T14:20:23;98546.19;;;7.26;100.00
4398;BME280;2213;49.720;7.296;2023-03-03T14:22:58;98539.63;;;7.47;100.00
4398;BME280;2213;49.720;7.296;2023-03-03T14:25:53;98547.63;;;7.88;100.00
4398;BME280;2213;49.720;7.296;2023-03-03T14:28:27;98542.19;;;8.23;100.00
4398;BME280;2213;49.720;7.296;2023-03-03T14:31:13;98530.19;;;8.54;100.00